Time;durP1;ratioP1;P1;durP2;ratioP2;P2;SDS_P1;SDS_P2;PMS_P1;PMS_P2;Temp;Humidity;BMP_temperature;BMP_pressure;BME280_temperature;BME280_humidity;BME280_pressure;Samples;Min_cycle;Max_cycle;Signal;HPM_P1;HPM_P2
2022/07/30 00:00:01;;;;;;;;;;;;;;;26.72;100.00;97832.53;5139070;27;19963;-64
2022/07/30 00:02:28;;;;;;;;;;;;;;;26.77;100.00;97834.94;5139957;27;19931;-63
2022/07/30 00:04:55;;;;;;;;;;;;;;;26.80;100.00;97833.47;5142647;27;19984;-64
2022/07/30 00:07:22;;;;;;;;;;;;;;;26.81;100.00;97835.03;5142436;27;19933;-63
2022/07/30 00:09:48;;;;;;;;;;;;;;;26.67;100.00;97827.41;5138902;27;19924;-64
2022/07/30 00:12:14;;;;;;;;;;;;;;;26.74;100.00;97822.00;5138967;27;19948;-64
2022/07/30 00:14:41;;;;;;;;;;;;;;;26.75;100.00;97828.28;5138482;27;19936;-64
2022/07/30 00:17:08;;;;;;;;;;;;;;;26.81;100.00;97827.63;5138663;27;19963;-64
2022/07/30 00:19:34;;;;;;;;;;;;;;;26.80;100.00;97828.00;5140542;27;19924;-64
2022/07/30 00:22:02;;;;;;;;;;;;;;;26.68;100.00;97823.47;5142431;27;19934;-64
2022/07/30 00:24:28;;;;;;;;;;;;;;;26.71;100.00;97825.47;5141163;27;19946;-64
2022/07/30 00:26:54;;;;;;;;;;;;;;;26.80;100.00;97814.28;5138835;27;19954;-64
2022/07/30 00:29:21;;;;;;;;;;;;;;;26.75;100.00;97815.38;5138662;28;19935;-64
2022/07/30 00:31:47;;;;;;;;;;;;;;;26.53;100.00;97818.97;5142203;28;19927;-64
2022/07/30 00:34:13;;;;;;;;;;;;;;;26.73;100.00;97820.44;5142185;28;19934;-64
2022/07/30 00:36:40;;;;;;;;;;;;;;;26.62;100.00;97818.69;5139180;28;19929;-64
2022/07/30 00:39:08;;;;;;;;;;;;;;;26.71;100.00;97811.78;5138540;28;19959;-64
2022/07/30 00:41:36;;;;;;;;;;;;;;;26.65;100.00;97813.25;5140352;28;19935;-63
2022/07/30 00:44:03;;;;;;;;;;;;;;;26.40;100.00;97817.59;5132577;28;19924;-63
2022/07/30 00:46:29;;;;;;;;;;;;;;;26.44;100.00;97815.69;5139604;28;19950;-62
2022/07/30 00:48:56;;;;;;;;;;;;;;;26.34;100.00;97813.59;5142018;28;19970;-65
2022/07/30 00:51:22;;;;;;;;;;;;;;;26.42;100.00;97812.56;5141806;28;19947;-64
2022/07/30 00:53:48;;;;;;;;;;;;;;;26.48;100.00;97819.28;5138526;28;19947;-64
2022/07/30 00:56:16;;;;;;;;;;;;;;;26.49;100.00;97815.38;5138575;28;19938;-64
2022/07/30 00:58:42;;;;;;;;;;;;;;;26.56;100.00;97807.25;5141581;28;19930;-64
2022/07/30 01:01:09;;;;;;;;;;;;;;;26.53;100.00;97809.94;5143279;27;19930;-65
2022/07/30 01:03:37;;;;;;;;;;;;;;;26.52;100.00;97802.91;5143689;27;19931;-64
2022/07/30 01:06:03;;;;;;;;;;;;;;;26.11;100.00;97796.38;5142257;27;19927;-64
2022/07/30 01:08:29;;;;;;;;;;;;;;;26.29;100.00;97805.69;5143269;27;19987;-64
2022/07/30 01:10:56;;;;;;;;;;;;;;;26.49;100.00;97801.69;5145624;27;19945;-64
2022/07/30 01:13:24;;;;;;;;;;;;;;;26.46;100.00;97799.69;5136847;27;19934;-64
2022/07/30 01:15:50;;;;;;;;;;;;;;;26.34;100.00;97797.16;5145381;27;20398;-63
2022/07/30 01:18:17;;;;;;;;;;;;;;;26.26;100.00;97792.75;5145469;27;19923;-63
2022/07/30 01:20:45;;;;;;;;;;;;;;;26.40;100.00;97801.16;5142141;27;19960;-64
2022/07/30 01:23:14;;;;;;;;;;;;;;;26.39;100.00;97794.13;5141954;27;19928;-64
2022/07/30 01:25:54;;;;;;;;;;;;;;;26.33;100.00;97798.34;5144714;27;20008;-64
2022/07/30 01:28:23;;;;;;;;;;;;;;;26.49;100.00;97803.66;5145455;27;19930;-64
2022/07/30 01:30:50;;;;;;;;;;;;;;;26.47;100.00;97804.00;5141866;27;19959;-64
2022/07/30 01:33:17;;;;;;;;;;;;;;;26.52;100.00;97822.09;5141800;27;19955;-64
2022/07/30 01:35:44;;;;;;;;;;;;;;;26.51;100.00;97810.34;5144568;27;19923;-63
2022/07/30 01:38:12;;;;;;;;;;;;;;;26.54;100.00;97806.84;5145059;27;19959;-65
2022/07/30 01:40:39;;;;;;;;;;;;;;;26.50;100.00;97816.16;5142459;27;19931;-63
2022/07/30 01:43:08;;;;;;;;;;;;;;;26.44;100.00;97818.44;5134897;27;19980;-63
2022/07/30 01:45:36;;;;;;;;;;;;;;;26.34;100.00;97812.81;5142999;27;19967;-64
2022/07/30 01:48:03;;;;;;;;;;;;;;;26.40;100.00;97812.09;5144810;27;19987;-64
2022/07/30 01:50:30;;;;;;;;;;;;;;;26.30;100.00;97808.06;5143499;27;19951;-64
2022/07/30 01:52:57;;;;;;;;;;;;;;;26.09;100.00;97817.88;5141271;27;20078;-64
2022/07/30 01:55:26;;;;;;;;;;;;;;;26.28;100.00;97807.63;5141424;27;19984;-64
2022/07/30 01:57:54;;;;;;;;;;;;;;;26.33;100.00;97809.28;5144344;27;19983;-64
2022/07/30 02:00:23;;;;;;;;;;;;;;;26.43;100.00;97814.09;5144385;27;19958;-64
2022/07/30 02:02:49;;;;;;;;;;;;;;;26.35;100.00;97808.91;5132740;27;19924;-64
2022/07/30 02:05:16;;;;;;;;;;;;;;;26.37;100.00;97801.91;5140785;27;20015;-64
2022/07/30 02:07:45;;;;;;;;;;;;;;;26.28;100.00;97799.44;5143485;27;19923;-63
2022/07/30 02:10:14;;;;;;;;;;;;;;;26.29;100.00;97805.69;5144182;27;19923;-63
2022/07/30 02:12:42;;;;;;;;;;;;;;;26.29;100.00;97809.22;5133220;27;19935;-64
2022/07/30 02:15:13;;;;;;;;;;;;;;;26.19;100.00;97798.09;5140681;27;19959;-64
2022/07/30 02:17:43;;;;;;;;;;;;;;;26.19;100.00;97817.25;5143071;27;19988;-64
2022/07/30 02:20:11;;;;;;;;;;;;;;;26.22;100.00;97813.78;5144069;27;19958;-64
2022/07/30 02:22:42;;;;;;;;;;;;;;;26.27;100.00;97808.03;5141428;27;20006;-64
2022/07/30 02:25:10;;;;;;;;;;;;;;;26.29;100.00;97801.00;5139138;27;19963;-65
2022/07/30 02:27:38;;;;;;;;;;;;;;;26.27;100.00;97802.53;5142490;27;19924;-67
2022/07/30 02:30:05;;;;;;;;;;;;;;;26.21;100.00;97807.53;5144258;27;20014;-64
2022/07/30 02:32:35;;;;;;;;;;;;;;;26.24;100.00;97811.50;5142611;27;20027;-64
2022/07/30 02:35:09;;;;;;;;;;;;;;;26.26;100.00;97796.28;5140469;27;19924;-65
2022/07/30 02:37:36;;;;;;;;;;;;;;;26.23;100.00;97802.50;5142406;27;20431;-63
2022/07/30 02:40:02;;;;;;;;;;;;;;;26.28;100.00;97809.59;5144037;27;19995;-65
2022/07/30 02:42:30;;;;;;;;;;;;;;;26.19;100.00;97801.63;5136345;27;19920;-65
2022/07/30 02:44:57;;;;;;;;;;;;;;;26.18;100.00;97807.50;5140289;27;19923;-65
2022/07/30 02:47:25;;;;;;;;;;;;;;;26.12;100.00;97798.75;5140381;27;19931;-65
2022/07/30 02:49:52;;;;;;;;;;;;;;;26.07;100.00;97798.28;5143798;27;19928;-65
2022/07/30 02:52:21;;;;;;;;;;;;;;;25.98;100.00;97795.00;5142439;27;19949;-67
2022/07/30 02:54:48;;;;;;;;;;;;;;;26.13;100.00;97796.81;5131618;27;19935;-65
2022/07/30 02:57:16;;;;;;;;;;;;;;;25.93;100.00;97803.53;5139714;27;19972;-64
2022/07/30 02:59:43;;;;;;;;;;;;;;;26.03;100.00;97802.88;5142770;27;19950;-65
2022/07/30 03:02:11;;;;;;;;;;;;;;;26.05;100.00;97801.38;5143215;27;19934;-65
2022/07/30 03:04:38;;;;;;;;;;;;;;;26.10;100.00;97794.81;5140722;27;20339;-65
2022/07/30 03:07:05;;;;;;;;;;;;;;;25.90;100.00;97794.09;5139470;27;19955;-63
2022/07/30 03:09:33;;;;;;;;;;;;;;;25.90;100.00;97788.63;5140891;27;19928;-63
2022/07/30 03:12:01;;;;;;;;;;;;;;;26.02;100.00;97793.13;5139395;27;20247;-63
2022/07/30 03:14:28;;;;;;;;;;;;;;;26.00;100.00;97790.72;5139336;27;19931;-64
2022/07/30 03:16:56;;;;;;;;;;;;;;;26.02;100.00;97791.19;5139252;27;19963;-64
2022/07/30 03:19:23;;;;;;;;;;;;;;;26.05;100.00;97795.13;5139695;27;19966;-64
2022/07/30 03:21:50;;;;;;;;;;;;;;;26.04;100.00;97788.06;5142730;27;19924;-64
2022/07/30 03:24:17;;;;;;;;;;;;;;;25.90;100.00;97796.06;5142337;27;19986;-64
2022/07/30 03:26:46;;;;;;;;;;;;;;;25.89;100.00;97787.03;5139326;27;19966;-64
2022/07/30 03:29:13;;;;;;;;;;;;;;;25.99;100.00;97799.31;5139248;27;19970;-65
2022/07/30 03:31:40;;;;;;;;;;;;;;;25.98;100.00;97793.06;5141622;27;19954;-64
2022/07/30 03:34:07;;;;;;;;;;;;;;;25.95;100.00;97795.72;5142641;27;19998;-64
2022/07/30 03:36:34;;;;;;;;;;;;;;;25.94;100.00;97803.16;5140444;27;19938;-65
2022/07/30 03:39:01;;;;;;;;;;;;;;;25.84;100.00;97792.84;5138964;27;19975;-64
2022/07/30 03:41:27;;;;;;;;;;;;;;;25.95;100.00;97802.00;5139780;27;19924;-64
2022/07/30 03:43:56;;;;;;;;;;;;;;;25.94;100.00;97803.16;5134421;27;19923;-64
2022/07/30 03:46:23;;;;;;;;;;;;;;;25.95;100.00;97810.22;5141992;27;19981;-64
2022/07/30 03:48:49;;;;;;;;;;;;;;;25.91;100.00;97814.03;5138767;27;20003;-64
2022/07/30 03:51:16;;;;;;;;;;;;;;;25.98;99.90;97805.94;5138676;27;19928;-63
2022/07/30 03:53:43;;;;;;;;;;;;;;;25.81;100.00;97803.72;5141624;27;20350;-64
2022/07/30 03:56:09;;;;;;;;;;;;;;;25.89;100.00;97810.88;5142197;27;19926;-64
2022/07/30 03:58:37;;;;;;;;;;;;;;;25.89;100.00;97814.41;5139775;27;19927;-65
2022/07/30 04:01:05;;;;;;;;;;;;;;;25.86;100.00;97825.28;5138581;27;19923;-65
2022/07/30 04:03:32;;;;;;;;;;;;;;;25.77;100.00;97826.31;5140119;27;19924;-64
2022/07/30 04:05:58;;;;;;;;;;;;;;;25.71;100.00;97824.25;5141988;27;19923;-64
2022/07/30 04:08:25;;;;;;;;;;;;;;;25.73;100.00;97820.00;5141516;27;19934;-64
2022/07/30 04:10:51;;;;;;;;;;;;;;;25.82;100.00;97830.69;5138517;27;19959;-64
2022/07/30 04:13:18;;;;;;;;;;;;;;;25.55;99.76;97827.09;5131988;27;19959;-63
2022/07/30 04:15:46;;;;;;;;;;;;;;;25.64;100.00;97830.38;5141298;27;19950;-64
2022/07/30 04:18:15;;;;;;;;;;;;;;;25.72;100.00;97825.81;5141873;27;19923;-64
2022/07/30 04:20:43;;;;;;;;;;;;;;;25.77;100.00;97833.75;5138912;27;19932;-65
2022/07/30 04:23:10;;;;;;;;;;;;;;;25.73;100.00;97841.09;5138233;28;19930;-64
2022/07/30 04:25:37;;;;;;;;;;;;;;;25.77;100.00;97840.00;5140188;27;20018;-64
2022/07/30 04:28:04;;;;;;;;;;;;;;;25.66;100.00;97839.00;5141911;27;19923;-64
2022/07/30 04:30:32;;;;;;;;;;;;;;;25.73;100.00;97838.34;5140514;28;20333;-65
2022/07/30 04:32:58;;;;;;;;;;;;;;;25.78;99.46;97838.84;5137999;28;19964;-64
2022/07/30 04:35:28;;;;;;;;;;;;;;;25.73;100.00;97844.63;5138901;28;19924;-64
2022/07/30 04:37:54;;;;;;;;;;;;;;;25.70;100.00;97848.06;5145881;27;19923;-64
2022/07/30 04:40:21;;;;;;;;;;;;;;;25.75;100.00;97846.97;5145967;27;19924;-65
2022/07/30 04:42:47;;;;;;;;;;;;;;;25.74;100.00;97848.94;5126098;27;19924;-64
2022/07/30 04:45:13;;;;;;;;;;;;;;;25.74;100.00;97851.69;5142301;27;20119;-64
2022/07/30 04:47:40;;;;;;;;;;;;;;;25.76;100.00;97854.84;5144753;27;19934;-64
2022/07/30 04:50:07;;;;;;;;;;;;;;;25.71;100.00;97854.34;5145949;27;19986;-64
2022/07/30 04:52:35;;;;;;;;;;;;;;;25.65;100.00;97853.06;5144016;27;19923;-64
2022/07/30 04:55:05;;;;;;;;;;;;;;;25.71;100.00;97857.88;5142209;27;19970;-64
2022/07/30 04:57:32;;;;;;;;;;;;;;;25.49;100.00;97853.16;5143558;27;19999;-65
2022/07/30 04:59:59;;;;;;;;;;;;;;;25.52;100.00;97848.91;5145701;27;19930;-64
2022/07/30 05:02:26;;;;;;;;;;;;;;;25.57;100.00;97848.59;5145003;27;19923;-64
2022/07/30 05:04:54;;;;;;;;;;;;;;;25.58;100.00;97858.38;5142077;27;19928;-65
2022/07/30 05:07:20;;;;;;;;;;;;;;;25.65;100.00;97851.13;5141993;27;19987;-65
2022/07/30 05:09:48;;;;;;;;;;;;;;;25.68;100.00;97852.34;5133255;27;20000;-64
2022/07/30 05:12:15;;;;;;;;;;;;;;;25.80;99.57;97843.16;5141715;27;19924;-65
2022/07/30 05:14:41;;;;;;;;;;;;;;;25.88;98.74;97850.31;5141630;27;19960;-63
2022/07/30 05:17:08;;;;;;;;;;;;;;;25.78;99.83;97847.03;5141780;27;19931;-65
2022/07/30 05:19:34;;;;;;;;;;;;;;;25.83;99.05;97853.38;5143486;27;19946;-64
2022/07/30 05:22:00;;;;;;;;;;;;;;;25.75;100.00;97857.91;5145180;27;19983;-64
2022/07/30 05:24:27;;;;;;;;;;;;;;;25.72;99.77;97853.16;5144381;27;20017;-64
2022/07/30 05:26:54;;;;;;;;;;;;;;;25.74;99.90;97859.09;5141549;27;19927;-65
2022/07/30 05:29:21;;;;;;;;;;;;;;;25.50;100.00;97851.97;5141540;27;19981;-64
2022/07/30 05:31:48;;;;;;;;;;;;;;;25.31;100.00;97853.94;5132998;27;19935;-65
2022/07/30 05:34:14;;;;;;;;;;;;;;;25.29;100.00;97857.00;5141440;27;19926;-64
2022/07/30 05:36:43;;;;;;;;;;;;;;;25.43;100.00;97854.56;5144162;27;19959;-65
2022/07/30 05:39:09;;;;;;;;;;;;;;;25.44;100.00;97858.09;5144814;27;19923;-64
2022/07/30 05:41:36;;;;;;;;;;;;;;;25.29;100.00;97861.69;5142740;27;20408;-64
2022/07/30 05:44:03;;;;;;;;;;;;;;;25.16;100.00;97863.78;5137429;27;19958;-64
2022/07/30 05:46:31;;;;;;;;;;;;;;;25.18;100.00;97864.22;5143119;27;20010;-64
2022/07/30 05:48:57;;;;;;;;;;;;;;;25.23;100.00;97864.72;5141185;27;19924;-64
2022/07/30 05:51:24;;;;;;;;;;;;;;;25.32;100.00;97875.41;5140006;27;19991;-64
2022/07/30 05:53:50;;;;;;;;;;;;;;;25.34;100.00;97878.59;5144515;27;19945;-65
2022/07/30 05:56:17;;;;;;;;;;;;;;;25.46;99.66;97866.72;5144629;27;19944;-64
2022/07/30 05:58:43;;;;;;;;;;;;;;;25.34;100.00;97864.94;5141370;27;20327;-64
2022/07/30 06:01:11;;;;;;;;;;;;;;;25.16;100.00;97867.28;5140769;27;19923;-63
2022/07/30 06:03:37;;;;;;;;;;;;;;;25.53;99.40;97866.91;5142918;27;19927;-63
2022/07/30 06:06:04;;;;;;;;;;;;;;;25.75;96.75;97874.31;5144345;27;19923;-64
2022/07/30 06:08:30;;;;;;;;;;;;;;;25.96;95.38;97874.75;5143061;27;19924;-64
2022/07/30 06:10:56;;;;;;;;;;;;;;;25.98;95.26;97877.09;5140706;27;20528;-63
2022/07/30 06:13:23;;;;;;;;;;;;;;;26.14;94.33;97885.97;5133016;27;20018;-65
2022/07/30 06:15:49;;;;;;;;;;;;;;;26.25;93.02;97884.22;5144072;27;19923;-64
2022/07/30 06:18:17;;;;;;;;;;;;;;;26.10;94.22;97880.44;5144183;27;19923;-64
2022/07/30 06:20:43;;;;;;;;;;;;;;;26.12;94.29;97882.84;5140673;27;19935;-64
2022/07/30 06:23:10;;;;;;;;;;;;;;;26.16;94.38;97889.97;5140527;27;19943;-64
2022/07/30 06:25:36;;;;;;;;;;;;;;;26.49;93.47;97886.56;5142425;27;19955;-64
2022/07/30 06:28:03;;;;;;;;;;;;;;;26.67;91.22;97876.72;5143980;27;19931;-64
2022/07/30 06:30:29;;;;;;;;;;;;;;;26.82;90.76;97880.47;5142866;27;19955;-64
2022/07/30 06:32:56;;;;;;;;;;;;;;;26.91;89.61;97875.50;5140291;27;20006;-65
2022/07/30 06:35:23;;;;;;;;;;;;;;;26.55;90.50;97884.34;5140495;27;19920;-64
2022/07/30 06:37:50;;;;;;;;;;;;;;;26.01;93.52;97888.09;5143764;27;19923;-64
2022/07/30 06:40:16;;;;;;;;;;;;;;;25.84;94.74;97888.59;5143881;27;19958;-64
2022/07/30 06:42:42;;;;;;;;;;;;;;;26.08;94.01;97895.66;5133974;27;19928;-65
2022/07/30 06:45:09;;;;;;;;;;;;;;;26.60;92.25;97893.03;5139942;27;19924;-64
2022/07/30 06:47:36;;;;;;;;;;;;;;;26.61;89.20;97900.09;5141860;27;19996;-65
2022/07/30 06:50:02;;;;;;;;;;;;;;;26.61;90.55;97900.09;5143533;27;19920;-64
2022/07/30 06:52:30;;;;;;;;;;;;;;;26.77;88.43;97906.19;5141390;27;20512;-64
2022/07/30 06:54:56;;;;;;;;;;;;;;;26.71;90.22;97909.63;5139782;27;19924;-64
2022/07/30 06:57:23;;;;;;;;;;;;;;;26.97;88.25;97906.13;5139804;27;19961;-64
2022/07/30 06:59:49;;;;;;;;;;;;;;;27.13;86.50;97910.28;5142513;27;19961;-64
2022/07/30 07:02:16;;;;;;;;;;;;;;;27.15;85.96;97904.41;5143084;27;20082;-65
2022/07/30 07:04:42;;;;;;;;;;;;;;;27.13;86.02;97909.47;5139960;27;19959;-65
2022/07/30 07:07:08;;;;;;;;;;;;;;;26.98;86.27;97913.19;5139358;27;20356;-65
2022/07/30 07:09:36;;;;;;;;;;;;;;;25.82;96.68;97912.78;5141256;27;19931;-64
2022/07/30 07:12:02;;;;;;;;;;;;;;;25.15;100.00;97908.66;5139156;27;19923;-63
2022/07/30 07:14:29;;;;;;;;;;;;;;;25.30;100.00;97916.00;5139439;27;19923;-64
2022/07/30 07:16:55;;;;;;;;;;;;;;;24.96;100.00;97912.16;5139432;27;19923;-64
2022/07/30 07:19:23;;;;;;;;;;;;;;;24.69;100.00;97916.59;5139442;27;19988;-64
2022/07/30 07:21:49;;;;;;;;;;;;;;;24.93;100.00;97903.88;5131286;27;19934;-64
2022/07/30 07:24:15;;;;;;;;;;;;;;;25.74;100.00;97908.31;5139498;27;19966;-64
2022/07/30 07:26:43;;;;;;;;;;;;;;;25.66;99.78;97912.84;5141827;27;19978;-64
2022/07/30 07:29:09;;;;;;;;;;;;;;;25.67;100.00;97905.44;5142897;27;19923;-64
2022/07/30 07:31:36;;;;;;;;;;;;;;;25.75;99.12;97918.09;5140643;27;19992;-64
2022/07/30 07:34:02;;;;;;;;;;;;;;;25.52;100.00;97911.78;5139177;27;19990;-66
2022/07/30 07:36:28;;;;;;;;;;;;;;;25.39;100.00;97905.66;5140360;27;19924;-64
2022/07/30 07:38:55;;;;;;;;;;;;;;;24.74;100.00;97910.03;5142688;27;19930;-64
2022/07/30 07:41:21;;;;;;;;;;;;;;;25.04;100.00;97905.69;5142647;27;19958;-64
2022/07/30 07:43:49;;;;;;;;;;;;;;;24.77;100.00;97906.59;5132188;27;19927;-64
2022/07/30 07:46:16;;;;;;;;;;;;;;;25.07;100.00;97909.63;5142283;27;19955;-63
2022/07/30 07:48:42;;;;;;;;;;;;;;;25.13;100.00;97902.75;5139460;27;19946;-64
2022/07/30 07:51:09;;;;;;;;;;;;;;;24.76;100.00;97899.56;5138767;27;19951;-64
2022/07/30 07:53:35;;;;;;;;;;;;;;;24.93;100.00;97901.94;5140517;27;19923;-64
2022/07/30 07:56:02;;;;;;;;;;;;;;;24.59;100.00;97906.22;5142546;27;19923;-64
2022/07/30 07:58:28;;;;;;;;;;;;;;;24.26;100.00;97910.44;5141367;27;19962;-64
2022/07/30 08:00:56;;;;;;;;;;;;;;;24.61;100.00;97901.16;5138799;27;20133;-63
2022/07/30 08:03:22;;;;;;;;;;;;;;;24.30;100.00;97914.03;5138520;27;19931;-64
2022/07/30 08:05:49;;;;;;;;;;;;;;;24.77;100.00;97914.81;5142187;27;20111;-65
2022/07/30 08:08:15;;;;;;;;;;;;;;;25.12;100.00;97909.38;5142452;27;19923;-64
2022/07/30 08:10:41;;;;;;;;;;;;;;;25.47;100.00;97910.09;5139286;27;19957;-65
2022/07/30 08:13:08;;;;;;;;;;;;;;;26.18;95.10;97912.28;5131828;27;19930;-64
2022/07/30 08:15:34;;;;;;;;;;;;;;;26.40;92.67;97907.19;5140158;27;19996;-64
2022/07/30 08:18:02;;;;;;;;;;;;;;;26.66;90.88;97908.00;5142128;27;19959;-64
2022/07/30 08:20:29;;;;;;;;;;;;;;;26.88;89.38;97909.13;5141130;27;19962;-65
2022/07/30 08:22:55;;;;;;;;;;;;;;;26.61;90.06;97905.56;5138410;27;19992;-64
2022/07/30 08:25:22;;;;;;;;;;;;;;;25.98;94.05;97904.47;5138485;27;19934;-65
2022/07/30 08:27:48;;;;;;;;;;;;;;;26.12;93.18;97915.69;5130166;27;20035;-64
2022/07/30 08:30:15;;;;;;;;;;;;;;;26.59;90.82;97918.03;5138547;28;19955;-65
2022/07/30 08:32:41;;;;;;;;;;;;;;;26.56;90.82;97903.13;5141085;28;19987;-64
2022/07/30 08:35:09;;;;;;;;;;;;;;;26.83;88.54;97918.44;5141905;28;20073;-64
2022/07/30 08:37:36;;;;;;;;;;;;;;;27.08;87.82;97907.06;5139951;28;19924;-65
2022/07/30 08:40:03;;;;;;;;;;;;;;;27.36;85.93;97910.16;5138477;28;19975;-64
2022/07/30 08:42:29;;;;;;;;;;;;;;;27.10;84.64;97913.75;5138215;28;19924;-64
2022/07/30 08:44:56;;;;;;;;;;;;;;;27.18;86.36;97918.16;5138400;28;19932;-64
2022/07/30 08:47:25;;;;;;;;;;;;;;;27.46;85.00;97922.47;5138737;28;19926;-64
2022/07/30 08:49:52;;;;;;;;;;;;;;;27.62;81.56;97915.63;5130828;28;19931;-65
2022/07/30 08:52:20;;;;;;;;;;;;;;;27.78;79.31;97909.91;5138670;28;19998;-65
2022/07/30 08:54:46;;;;;;;;;;;;;;;27.78;79.83;97912.66;5142219;28;19924;-64
2022/07/30 08:57:13;;;;;;;;;;;;;;;27.65;78.94;97903.09;5142454;28;19933;-65
2022/07/30 08:59:39;;;;;;;;;;;;;;;27.69;78.28;97921.19;5139797;28;19968;-64
2022/07/30 09:02:06;;;;;;;;;;;;;;;26.96;76.51;97910.00;5138654;28;20446;-65
2022/07/30 09:04:33;;;;;;;;;;;;;;;27.28;79.72;97916.72;5140188;28;19963;-65
2022/07/30 09:06:59;;;;;;;;;;;;;;;26.96;76.49;97918.22;5142360;28;19959;-65
2022/07/30 09:09:27;;;;;;;;;;;;;;;27.27;79.50;97909.66;5141873;28;19926;-65
2022/07/30 09:11:53;;;;;;;;;;;;;;;27.75;75.13;97916.94;5138520;28;19924;-65
2022/07/30 09:14:19;;;;;;;;;;;;;;;27.91;74.36;97915.94;5138565;28;19923;-65
2022/07/30 09:16:46;;;;;;;;;;;;;;;27.91;73.59;97899.47;5138665;28;19966;-64
2022/07/30 09:19:14;;;;;;;;;;;;;;;28.04;73.51;97914.50;5138413;28;19958;-64
2022/07/30 09:21:40;;;;;;;;;;;;;;;28.01;72.20;97915.25;5141307;27;19924;-64
2022/07/30 09:24:08;;;;;;;;;;;;;;;28.10;72.07;97907.53;5145805;27;19930;-64
2022/07/30 09:26:51;;;;;;;;;;;;;;;28.21;70.75;97898.22;5144012;27;19919;-64
2022/07/30 09:29:20;;;;;;;;;;;;;;;28.38;68.60;97894.81;5142231;27;19924;-64
2022/07/30 09:31:52;;;;;;;;;;;;;;;28.46;67.76;97914.91;5145514;27;19924;-64
2022/07/30 09:34:25;;;;;;;;;;;;;;;28.26;67.93;97913.53;5145826;27;19995;-63
2022/07/30 09:36:52;;;;;;;;;;;;;;;27.98;68.35;97916.00;5134001;27;19924;-64
2022/07/30 09:39:28;;;;;;;;;;;;;;;28.17;69.52;97905.63;5141707;27;19935;-64
2022/07/30 09:41:55;;;;;;;;;;;;;;;28.12;67.77;97918.91;5134138;27;19991;-65
2022/07/30 09:44:25;;;;;;;;;;;;;;;28.34;68.83;97907.75;5141660;27;19927;-64
2022/07/30 09:46:51;;;;;;;;;;;;;;;28.50;67.32;97912.19;5133467;27;19950;-65
2022/07/30 09:49:18;;;;;;;;;;;;;;;28.57;66.49;97913.03;5141621;27;19954;-63
2022/07/30 09:51:45;;;;;;;;;;;;;;;28.40;66.65;97908.19;5144587;27;19930;-64
2022/07/30 09:54:11;;;;;;;;;;;;;;;28.22;65.25;97912.75;5144191;27;19927;-64
2022/07/30 09:56:38;;;;;;;;;;;;;;;27.59;67.44;97913.63;5142945;27;19966;-64
2022/07/30 09:59:05;;;;;;;;;;;;;;;26.83;72.75;97923.16;5141588;27;19966;-64
2022/07/30 10:01:47;;;;;;;;;;;;;;;27.03;74.06;97921.88;5142954;27;19944;-65
2022/07/30 10:04:22;;;;;;;;;;;;;;;26.61;75.70;97932.97;5144942;27;19959;-63
2022/07/30 10:06:49;;;;;;;;;;;;;;;26.93;76.22;97910.75;5133239;27;19990;-65
2022/07/30 10:09:24;;;;;;;;;;;;;;;27.31;73.90;97922.25;5141602;27;19930;-64
2022/07/30 10:11:50;;;;;;;;;;;;;;;27.49;72.70;97910.75;5133382;27;19924;-65
2022/07/30 10:14:18;;;;;;;;;;;;;;;27.86;70.59;97911.56;5140852;27;19924;-64
2022/07/30 10:16:44;;;;;;;;;;;;;;;27.71;68.43;97912.56;5141635;27;19930;-64
2022/07/30 10:19:11;;;;;;;;;;;;;;;28.10;68.13;97916.53;5141134;27;19935;-63
2022/07/30 10:21:39;;;;;;;;;;;;;;;27.90;66.18;97915.13;5143038;27;19924;-64
2022/07/30 10:24:06;;;;;;;;;;;;;;;28.06;66.68;97915.72;5144600;27;20002;-63
2022/07/30 10:26:33;;;;;;;;;;;;;;;28.41;64.61;97907.81;5143203;27;19923;-64
2022/07/30 10:29:01;;;;;;;;;;;;;;;28.54;63.73;97905.53;5140967;27;19990;-67
2022/07/30 10:31:27;;;;;;;;;;;;;;;28.44;62.58;97905.47;5141635;27;19920;-64
2022/07/30 10:33:54;;;;;;;;;;;;;;;28.04;61.66;97903.53;5143212;27;19938;-64
2022/07/30 10:36:21;;;;;;;;;;;;;;;28.13;62.86;97906.78;5143274;27;20264;-65
2022/07/30 10:38:49;;;;;;;;;;;;;;;27.59;62.73;97899.91;5140517;27;19923;-64
2022/07/30 10:41:25;;;;;;;;;;;;;;;27.17;64.66;97902.09;5139527;27;19958;-64
2022/07/30 10:43:59;;;;;;;;;;;;;;;26.85;65.30;97896.16;5134913;27;19950;-64
2022/07/30 10:46:33;;;;;;;;;;;;;;;26.97;67.86;97906.91;5143519;27;20002;-65
2022/07/30 10:49:07;;;;;;;;;;;;;;;27.46;66.71;97903.25;5140626;27;19923;-64
2022/07/30 10:51:43;;;;;;;;;;;;;;;27.96;64.91;97896.38;5141981;27;19994;-65
2022/07/30 10:54:25;;;;;;;;;;;;;;;28.16;61.60;97897.78;5144100;27;19927;-64
2022/07/30 10:57:04;;;;;;;;;;;;;;;27.65;60.42;97892.13;5132299;27;19935;-64
2022/07/30 10:59:51;;;;;;;;;;;;;;;28.15;61.74;97876.97;5141042;27;19924;-65
2022/07/30 11:02:19;;;;;;;;;;;;;;;28.44;59.49;97872.50;5142832;27;20409;-64
2022/07/30 11:04:46;;;;;;;;;;;;;;;28.10;58.13;97875.34;5140322;27;19934;-64
2022/07/30 11:07:30;;;;;;;;;;;;;;;28.07;59.71;97876.09;5140073;27;19991;-64
2022/07/30 11:09:59;;;;;;;;;;;;;;;28.06;59.03;97865.53;5132794;27;19955;-64
2022/07/30 11:12:46;;;;;;;;;;;;;;;28.38;57.67;97864.59;5139887;27;20022;-63
2022/07/30 11:15:13;;;;;;;;;;;;;;;28.48;56.97;97868.59;5139989;27;19931;-65
2022/07/30 11:18:03;;;;;;;;;;;;;;;28.25;57.22;97857.84;5142351;27;19967;-64
2022/07/30 11:20:30;;;;;;;;;;;;;;;28.65;56.41;97862.50;5142316;27;19977;-64
2022/07/30 11:23:08;;;;;;;;;;;;;;;28.38;53.26;97852.81;5139799;27;19935;-65
2022/07/30 11:25:39;;;;;;;;;;;;;;;28.08;55.80;97860.44;5141512;27;19979;-64
2022/07/30 11:28:05;;;;;;;;;;;;;;;27.64;56.75;97855.66;5143038;27;19924;-64
2022/07/30 11:30:34;;;;;;;;;;;;;;;27.51;57.31;97848.88;5141756;27;19924;-64
2022/07/30 11:33:18;;;;;;;;;;;;;;;27.57;58.30;97858.34;5139462;27;19920;-65
2022/07/30 11:36:04;;;;;;;;;;;;;;;27.26;58.06;97859.53;5142338;27;19923;-64
2022/07/30 11:38:50;;;;;;;;;;;;;;;27.50;58.45;97860.22;5142054;27;20395;-65
2022/07/30 11:41:16;;;;;;;;;;;;;;;27.57;55.70;97854.81;5139468;27;19955;-66
2022/07/30 11:43:42;;;;;;;;;;;;;;;27.90;57.04;97852.00;5135368;27;19924;-64
2022/07/30 11:46:11;;;;;;;;;;;;;;;28.10;56.67;97858.88;5142528;27;19924;-65
2022/07/30 11:48:38;;;;;;;;;;;;;;;28.25;56.35;97865.31;5140676;27;19927;-64
2022/07/30 11:51:04;;;;;;;;;;;;;;;28.05;54.38;97866.69;5138091;27;19934;-64
2022/07/30 11:53:31;;;;;;;;;;;;;;;27.52;55.64;97860.63;5140128;27;19924;-64
2022/07/30 11:55:58;;;;;;;;;;;;;;;27.99;56.14;97870.91;5142570;27;19946;-65
2022/07/30 11:58:26;;;;;;;;;;;;;;;28.20;56.49;97874.66;5142433;27;19923;-64
2022/07/30 12:00:53;;;;;;;;;;;;;;;28.23;55.08;97875.84;5139193;27;19927;-64
2022/07/30 12:03:22;;;;;;;;;;;;;;;28.23;55.74;97879.41;5139129;27;20293;-64
2022/07/30 12:05:48;;;;;;;;;;;;;;;27.99;55.89;97874.44;5130284;27;19945;-64
2022/07/30 12:08:16;;;;;;;;;;;;;;;27.35;55.64;97867.47;5138660;27;19955;-65
2022/07/30 12:10:42;;;;;;;;;;;;;;;27.58;56.77;97873.63;5141207;27;19963;-64
2022/07/30 12:13:10;;;;;;;;;;;;;;;27.86;54.82;97876.66;5135817;27;19931;-64
2022/07/30 12:15:38;;;;;;;;;;;;;;;27.80;55.42;97882.88;5140737;27;20010;-64
2022/07/30 12:18:04;;;;;;;;;;;;;;;28.18;56.33;97876.22;5142330;27;19970;-65
2022/07/30 12:20:32;;;;;;;;;;;;;;;28.28;54.92;97876.31;5141233;27;19928;-64
2022/07/30 12:22:58;;;;;;;;;;;;;;;28.00;54.06;97875.25;5138565;27;20088;-64
2022/07/30 12:25:25;;;;;;;;;;;;;;;28.06;55.45;97874.56;5138967;27;19952;-64
2022/07/30 12:27:52;;;;;;;;;;;;;;;28.07;54.23;97870.63;5142421;27;19923;-64
2022/07/30 12:30:19;;;;;;;;;;;;;;;28.17;55.07;97874.63;5142517;27;19924;-64
2022/07/30 12:32:46;;;;;;;;;;;;;;;28.19;53.23;97877.81;5138960;28;19924;-65
2022/07/30 12:35:13;;;;;;;;;;;;;;;28.31;54.34;97875.56;5138620;28;20311;-64
2022/07/30 12:37:40;;;;;;;;;;;;;;;28.11;52.55;97873.41;5140850;28;19928;-64
2022/07/30 12:40:08;;;;;;;;;;;;;;;28.31;53.52;97880.25;5140514;28;19997;-65
2022/07/30 12:42:35;;;;;;;;;;;;;;;27.91;52.80;97885.75;5133300;28;19924;-66